sensor_id;sensor_type;location;lat;lon;timestamp;pressure;altitude;pressure_sealevel;temperature;humidity
50322;BME280;36227;53.366;-1.426;2022-09-17T00:01:17;76818.79;;;-214.20;100.00
50322;BME280;36227;53.366;-1.426;2022-09-17T00:03:38;76847.98;;;-213.96;100.00
50322;BME280;36227;53.366;-1.426;2022-09-17T00:06:06;76920.90;;;-213.48;100.00
50322;BME280;36227;53.366;-1.426;2022-09-17T00:08:28;76854.55;;;-213.96;100.00
50322;BME280;36227;53.366;-1.426;2022-09-17T00:10:53;76862.89;;;-213.96;100.00
50322;BME280;36227;53.366;-1.426;2022-09-17T00:13:19;76820.69;;;-214.20;100.00
50322;BME280;36227;53.366;-1.426;2022-09-17T00:15:45;76863.27;;;-214.20;100.00
50322;BME280;36227;53.366;-1.426;2022-09-17T00:18:09;76866.05;;;-214.20;100.00
50322;BME280;36227;53.366;-1.426;2022-09-17T00:20:38;76883.11;;;-213.96;100.00
50322;BME280;36227;53.366;-1.426;2022-09-17T00:22:59;76842.67;;;-213.48;100.00
50322;BME280;36227;53.366;-1.426;2022-09-17T00:25:25;76831.18;;;-213.96;100.00
50322;BME280;36227;53.366;-1.426;2022-09-17T00:27:50;76842.42;;;-213.96;100.00
50322;BME280;36227;53.366;-1.426;2022-09-17T00:30:15;76893.73;;;-213.72;100.00
50322;BME280;36227;53.366;-1.426;2022-09-17T00:32:40;76891.33;;;-213.48;100.00
50322;BME280;36227;53.366;-1.426;2022-09-17T00:35:07;76908.51;;;-214.20;100.00
50322;BME280;36227;53.366;-1.426;2022-09-17T00:37:31;76925.07;;;-213.96;100.00
50322;BME280;36227;53.366;-1.426;2022-09-17T00:39:56;76922.92;;;-213.72;100.00
50322;BME280;36227;53.366;-1.426;2022-09-17T00:42:22;76937.58;;;-213.72;100.00
50322;BME280;36227;53.366;-1.426;2022-09-17T00:44:49;76883.87;;;-213.96;100.00
50322;BME280;36227;53.366;-1.426;2022-09-17T00:47:18;76961.21;;;-213.24;100.00
50322;BME280;36227;53.366;-1.426;2022-09-17T00:49:37;76871.23;;;-213.72;100.00
50322;BME280;36227;53.366;-1.426;2022-09-17T00:52:06;76834.97;;;-213.48;100.00
50322;BME280;36227;53.366;-1.426;2022-09-17T00:54:27;76817.02;;;-213.96;100.00
50322;BME280;36227;53.366;-1.426;2022-09-17T00:56:53;76916.22;;;-214.20;100.00
50322;BME280;36227;53.366;-1.426;2022-09-17T00:59:19;76939.85;;;-213.96;100.00
50322;BME280;36227;53.366;-1.426;2022-09-17T01:01:43;76805.90;;;-213.96;100.00
50322;BME280;36227;53.366;-1.426;2022-09-17T01:04:14;76848.74;;;-213.96;100.00
50322;BME280;36227;53.366;-1.426;2022-09-17T01:06:39;76786.19;;;-213.96;100.00
50322;BME280;36227;53.366;-1.426;2022-09-17T01:09:09;76756.11;;;-214.20;100.00
50322;BME280;36227;53.366;-1.426;2022-09-17T01:11:34;76864.79;;;-213.96;100.00
50322;BME280;36227;53.366;-1.426;2022-09-17T01:13:58;76786.44;;;-213.96;100.00
50322;BME280;36227;53.366;-1.426;2022-09-17T01:16:18;76942.76;;;-213.48;100.00
50322;BME280;36227;53.366;-1.426;2022-09-17T01:18:49;76863.15;;;-214.20;100.00
50322;BME280;36227;53.366;-1.426;2022-09-17T01:26:05;76868.20;;;-213.48;100.00
50322;BME280;36227;53.366;-1.426;2022-09-17T01:28:31;76797.31;;;-213.96;100.00
50322;BME280;36227;53.366;-1.426;2022-09-17T01:31:00;76838.13;;;-213.96;100.00
50322;BME280;36227;53.366;-1.426;2022-09-17T01:33:14;76816.90;;;-213.96;100.00
50322;BME280;36227;53.366;-1.426;2022-09-17T01:35:45;76766.98;;;-214.20;100.00
50322;BME280;36227;53.366;-1.426;2022-09-17T01:38:07;76873.00;;;-213.96;100.00
50322;BME280;36227;53.366;-1.426;2022-09-17T01:40:32;76756.37;;;-214.20;100.00
50322;BME280;36227;53.366;-1.426;2022-09-17T01:42:57;76797.94;;;-214.91;100.00
50322;BME280;36227;53.366;-1.426;2022-09-17T01:45:23;76917.23;;;-213.96;100.00
50322;BME280;36227;53.366;-1.426;2022-09-17T01:47:46;76855.69;;;-213.96;100.00
50322;BME280;36227;53.366;-1.426;2022-09-17T01:50:11;76850.51;;;-213.96;100.00
50322;BME280;36227;53.366;-1.426;2022-09-17T01:52:36;76873.13;;;-213.72;100.00
50322;BME280;36227;53.366;-1.426;2022-09-17T01:55:02;76833.83;;;-213.96;100.00
50322;BME280;36227;53.366;-1.426;2022-09-17T01:57:28;76875.53;;;-213.72;100.00
50322;BME280;36227;53.366;-1.426;2022-09-17T01:59:53;76871.99;;;-213.96;100.00
50322;BME280;36227;53.366;-1.426;2022-09-17T02:02:20;76846.97;;;-213.96;100.00
50322;BME280;36227;53.366;-1.426;2022-09-17T02:04:43;76829.53;;;-214.43;100.00
50322;BME280;36227;53.366;-1.426;2022-09-17T02:07:10;76957.17;;;-213.96;100.00
50322;BME280;36227;53.366;-1.426;2022-09-17T02:09:33;76936.57;;;-213.72;100.00
50322;BME280;36227;53.366;-1.426;2022-09-17T02:11:58;76932.65;;;-213.48;100.00
50322;BME280;36227;53.366;-1.426;2022-09-17T02:14:25;76911.92;;;-213.72;100.00
50322;BME280;36227;53.366;-1.426;2022-09-17T02:16:49;76874.90;;;-213.72;100.00
50322;BME280;36227;53.366;-1.426;2022-09-17T02:19:16;76901.56;;;-213.48;100.00
50322;BME280;36227;53.366;-1.426;2022-09-17T02:21:43;76817.28;;;-213.72;100.00
50322;BME280;36227;53.366;-1.426;2022-09-17T02:24:09;76854.93;;;-214.20;100.00
50322;BME280;36227;53.366;-1.426;2022-09-17T02:26:27;76792.63;;;-214.67;100.00
50322;BME280;36227;53.366;-1.426;2022-09-17T02:28:55;76805.40;;;-213.96;100.00
50322;BME280;36227;53.366;-1.426;2022-09-17T02:31:17;76747.02;;;-214.43;100.00
50322;BME280;36227;53.366;-1.426;2022-09-17T02:33:47;76781.13;;;-214.20;100.00
50322;BME280;36227;53.366;-1.426;2022-09-17T02:36:08;76843.31;;;-213.96;100.00
50322;BME280;36227;53.366;-1.426;2022-09-17T02:38:33;76784.55;;;-213.96;100.00
50322;BME280;36227;53.366;-1.426;2022-09-17T02:41:05;76910.28;;;-213.72;100.00
50322;BME280;36227;53.366;-1.426;2022-09-17T02:43:31;76923.93;;;-213.48;100.00
50322;BME280;36227;53.366;-1.426;2022-09-17T02:45:59;76869.09;;;-213.96;100.00
50322;BME280;36227;53.366;-1.426;2022-09-17T02:48:27;76879.45;;;-214.43;100.00
50322;BME280;36227;53.366;-1.426;2022-09-17T02:50:55;76923.30;;;-213.96;100.00
50322;BME280;36227;53.366;-1.426;2022-09-17T02:53:16;76964.37;;;-213.48;100.00
50322;BME280;36227;53.366;-1.426;2022-09-17T02:55:37;76880.96;;;-213.96;100.00
50322;BME280;36227;53.366;-1.426;2022-09-17T02:58:02;76862.01;;;-213.96;100.00
50322;BME280;36227;53.366;-1.426;2022-09-17T03:00:22;76971.07;;;-213.72;100.00
50322;BME280;36227;53.366;-1.426;2022-09-17T03:02:50;76924.69;;;-213.96;100.00
50322;BME280;36227;53.366;-1.426;2022-09-17T03:05:13;76896.13;;;-213.72;100.00
50322;BME280;36227;53.366;-1.426;2022-09-17T03:07:38;76976.50;;;-213.48;100.00
50322;BME280;36227;53.366;-1.426;2022-09-17T03:10:03;76928.61;;;-214.43;100.00
50322;BME280;36227;53.366;-1.426;2022-09-17T03:12:28;76876.41;;;-214.20;100.00
50322;BME280;36227;53.366;-1.426;2022-09-17T03:14:53;76864.28;;;-213.96;100.00
50322;BME280;36227;53.366;-1.426;2022-09-17T03:17:18;76914.58;;;-213.96;100.00
50322;BME280;36227;53.366;-1.426;2022-09-17T03:19:43;76819.04;;;-213.96;100.00
50322;BME280;36227;53.366;-1.426;2022-09-17T03:22:08;76982.69;;;-213.48;100.00
50322;BME280;36227;53.366;-1.426;2022-09-17T03:24:34;76982.06;;;-213.48;100.00
50322;BME280;36227;53.366;-1.426;2022-09-17T03:26:59;77005.06;;;-213.48;100.00
50322;BME280;36227;53.366;-1.426;2022-09-17T03:29:24;76859.23;;;-213.48;100.00
50322;BME280;36227;53.366;-1.426;2022-09-17T03:31:49;76919.76;;;-214.43;100.00
50322;BME280;36227;53.366;-1.426;2022-09-17T03:34:14;76916.85;;;-213.96;100.00
50322;BME280;36227;53.366;-1.426;2022-09-17T03:36:40;76954.38;;;-213.72;100.00
50322;BME280;36227;53.366;-1.426;2022-09-17T03:39:06;76963.74;;;-213.72;100.00
50322;BME280;36227;53.366;-1.426;2022-09-17T03:41:31;76928.35;;;-213.48;100.00
50322;BME280;36227;53.366;-1.426;2022-09-17T03:43:56;76950.09;;;-213.48;100.00
50322;BME280;36227;53.366;-1.426;2022-09-17T03:46:21;77030.59;;;-213.00;100.00
50322;BME280;36227;53.366;-1.426;2022-09-17T03:48:46;76974.10;;;-213.48;100.00
50322;BME280;36227;53.366;-1.426;2022-09-17T03:51:12;77032.61;;;-213.48;100.00
50322;BME280;36227;53.366;-1.426;2022-09-17T03:53:37;76965.51;;;-213.96;100.00
50322;BME280;36227;53.366;-1.426;2022-09-17T03:56:04;76942.00;;;-213.96;100.00
50322;BME280;36227;53.366;-1.426;2022-09-17T03:58:28;76903.46;;;-213.72;100.00
50322;BME280;36227;53.366;-1.426;2022-09-17T04:00:52;76912.30;;;-213.48;100.00
50322;BME280;36227;53.366;-1.426;2022-09-17T04:03:18;76959.44;;;-213.48;100.00
50322;BME280;36227;53.366;-1.426;2022-09-17T04:05:43;76981.93;;;-213.48;100.00
50322;BME280;36227;53.366;-1.426;2022-09-17T04:08:08;76997.60;;;-213.24;100.00
50322;BME280;36227;53.366;-1.426;2022-09-17T04:10:33;76959.44;;;-213.48;100.00
50322;BME280;36227;53.366;-1.426;2022-09-17T04:12:59;77035.77;;;-213.00;100.00
50322;BME280;36227;53.366;-1.426;2022-09-17T04:15:24;76982.44;;;-214.20;100.00
50322;BME280;36227;53.366;-1.426;2022-09-17T04:17:49;77004.18;;;-213.72;100.00
50322;BME280;36227;53.366;-1.426;2022-09-17T04:20:14;76912.05;;;-213.96;100.00
50322;BME280;36227;53.366;-1.426;2022-09-17T04:22:40;77014.03;;;-213.24;100.00
50322;BME280;36227;53.366;-1.426;2022-09-17T04:25:06;76988.51;;;-213.24;100.00
50322;BME280;36227;53.366;-1.426;2022-09-17T04:27:30;76912.18;;;-213.48;100.00
50322;BME280;36227;53.366;-1.426;2022-09-17T04:29:55;77042.85;;;-213.24;100.00
50322;BME280;36227;53.366;-1.426;2022-09-17T04:32:20;76964.12;;;-213.24;100.00
50322;BME280;36227;53.366;-1.426;2022-09-17T04:34:46;76979.03;;;-213.24;100.00
50322;BME280;36227;53.366;-1.426;2022-09-17T04:37:11;77024.27;;;-213.72;100.00
50322;BME280;36227;53.366;-1.426;2022-09-17T04:39:36;76963.48;;;-213.48;100.00
50322;BME280;36227;53.366;-1.426;2022-09-17T04:42:01;76963.74;;;-213.48;100.00
50322;BME280;36227;53.366;-1.426;2022-09-17T04:44:26;76990.65;;;-213.48;100.00
50322;BME280;36227;53.366;-1.426;2022-09-17T04:46:52;76946.30;;;-213.24;100.00
50322;BME280;36227;53.366;-1.426;2022-09-17T04:49:17;76919.63;;;-213.48;100.00
50322;BME280;36227;53.366;-1.426;2022-09-17T04:51:42;77033.24;;;-213.24;100.00
50322;BME280;36227;53.366;-1.426;2022-09-17T04:54:07;77126.63;;;-212.76;100.00
50322;BME280;36227;53.366;-1.426;2022-09-17T04:56:33;77003.42;;;-213.48;100.00
50322;BME280;36227;53.366;-1.426;2022-09-17T04:58:58;76994.82;;;-214.20;100.00
50322;BME280;36227;53.366;-1.426;2022-09-17T05:01:23;76949.08;;;-213.72;100.00
50322;BME280;36227;53.366;-1.426;2022-09-17T05:03:48;76987.62;;;-213.48;100.00
50322;BME280;36227;53.366;-1.426;2022-09-17T05:06:13;76993.05;;;-213.48;100.00
50322;BME280;36227;53.366;-1.426;2022-09-17T05:08:39;76933.79;;;-213.48;100.00
50322;BME280;36227;53.366;-1.426;2022-09-17T05:11:04;76923.30;;;-213.48;100.00
50322;BME280;36227;53.366;-1.426;2022-09-17T05:13:29;76965.25;;;-213.48;100.00
50322;BME280;36227;53.366;-1.426;2022-09-17T05:15:55;76953.37;;;-213.24;100.00
50322;BME280;36227;53.366;-1.426;2022-09-17T05:18:19;77049.80;;;-213.24;100.00
50322;BME280;36227;53.366;-1.426;2022-09-17T05:20:45;76964.37;;;-213.96;100.00
50322;BME280;36227;53.366;-1.426;2022-09-17T05:23:10;76992.30;;;-213.72;100.00
50322;BME280;36227;53.366;-1.426;2022-09-17T05:25:35;76967.15;;;-213.48;100.00
50322;BME280;36227;53.366;-1.426;2022-09-17T05:28:01;76957.42;;;-213.24;100.00
50322;BME280;36227;53.366;-1.426;2022-09-17T05:30:26;77022.88;;;-213.00;100.00
50322;BME280;36227;53.366;-1.426;2022-09-17T05:32:57;77025.15;;;-213.00;100.00
50322;BME280;36227;53.366;-1.426;2022-09-17T05:35:16;77027.81;;;-213.24;100.00
50322;BME280;36227;53.366;-1.426;2022-09-17T05:37:41;76957.04;;;-213.24;100.00
50322;BME280;36227;53.366;-1.426;2022-09-17T05:40:08;76960.70;;;-213.48;100.00
50322;BME280;36227;53.366;-1.426;2022-09-17T05:42:32;77007.71;;;-213.96;100.00
50322;BME280;36227;53.366;-1.426;2022-09-17T05:44:57;77011.00;;;-213.48;100.00
50322;BME280;36227;53.366;-1.426;2022-09-17T05:47:22;76946.93;;;-213.72;100.00
50322;BME280;36227;53.366;-1.426;2022-09-17T05:49:47;76904.60;;;-213.72;100.00
50322;BME280;36227;53.366;-1.426;2022-09-17T05:52:12;76977.76;;;-213.48;100.00
50322;BME280;36227;53.366;-1.426;2022-09-17T05:54:38;76979.66;;;-214.20;100.00
50322;BME280;36227;53.366;-1.426;2022-09-17T05:57:04;76958.05;;;-213.48;100.00
50322;BME280;36227;53.366;-1.426;2022-09-17T05:59:28;77026.80;;;-213.00;100.00
50322;BME280;36227;53.366;-1.426;2022-09-17T06:01:53;76959.44;;;-213.24;100.00
50322;BME280;36227;53.366;-1.426;2022-09-17T06:04:19;76964.49;;;-214.20;100.00
50322;BME280;36227;53.366;-1.426;2022-09-17T06:06:44;76987.49;;;-213.96;100.00
50322;BME280;36227;53.366;-1.426;2022-09-17T06:09:10;76946.68;;;-213.96;100.00
50322;BME280;36227;53.366;-1.426;2022-09-17T06:11:35;76880.59;;;-213.96;100.00
50322;BME280;36227;53.366;-1.426;2022-09-17T06:14:00;76840.65;;;-213.96;100.00
50322;BME280;36227;53.366;-1.426;2022-09-17T06:16:25;76939.60;;;-213.48;100.00
50322;BME280;36227;53.366;-1.426;2022-09-17T06:18:51;76956.03;;;-213.48;100.00
50322;BME280;36227;53.366;-1.426;2022-09-17T06:21:15;76968.66;;;-213.48;100.00
50322;BME280;36227;53.366;-1.426;2022-09-17T06:23:40;77021.11;;;-213.00;100.00
50322;BME280;36227;53.366;-1.426;2022-09-17T06:26:06;77020.98;;;-213.96;100.00
50322;BME280;36227;53.366;-1.426;2022-09-17T06:28:32;76983.45;;;-213.72;100.00
50322;BME280;36227;53.366;-1.426;2022-09-17T06:30:59;76959.57;;;-213.48;100.00
50322;BME280;36227;53.366;-1.426;2022-09-17T06:33:22;76984.84;;;-213.48;100.00
50322;BME280;36227;53.366;-1.426;2022-09-17T06:35:47;76914.83;;;-213.72;100.00
50322;BME280;36227;53.366;-1.426;2022-09-17T06:38:12;77014.54;;;-213.00;100.00
50322;BME280;36227;53.366;-1.426;2022-09-17T06:40:37;77027.05;;;-213.24;100.00
50322;BME280;36227;53.366;-1.426;2022-09-17T06:43:03;76997.48;;;-213.00;100.00
50322;BME280;36227;53.366;-1.426;2022-09-17T06:45:28;77018.83;;;-213.00;100.00
50322;BME280;36227;53.366;-1.426;2022-09-17T06:47:53;77019.47;;;-213.96;100.00
50322;BME280;36227;53.366;-1.426;2022-09-17T06:50:18;77015.17;;;-213.48;100.00
50322;BME280;36227;53.366;-1.426;2022-09-17T06:52:47;76988.13;;;-213.48;100.00
50322;BME280;36227;53.366;-1.426;2022-09-17T06:55:09;76975.74;;;-213.48;100.00
50322;BME280;36227;53.366;-1.426;2022-09-17T06:57:34;77051.31;;;-213.24;100.00
50322;BME280;36227;53.366;-1.426;2022-09-17T06:59:59;77037.41;;;-213.00;100.00
50322;BME280;36227;53.366;-1.426;2022-09-17T07:02:24;77031.85;;;-213.24;100.00
50322;BME280;36227;53.366;-1.426;2022-09-17T07:04:49;76992.42;;;-213.24;100.00
50322;BME280;36227;53.366;-1.426;2022-09-17T07:07:15;77022.50;;;-213.24;100.00
50322;BME280;36227;53.366;-1.426;2022-09-17T07:09:40;76959.31;;;-213.96;100.00
50322;BME280;36227;53.366;-1.426;2022-09-17T07:12:07;77008.85;;;-213.48;100.00
50322;BME280;36227;53.366;-1.426;2022-09-17T07:14:30;77018.58;;;-213.48;100.00
50322;BME280;36227;53.366;-1.426;2022-09-17T07:16:56;76934.54;;;-213.48;100.00
50322;BME280;36227;53.366;-1.426;2022-09-17T07:19:21;76922.16;;;-213.48;100.00
50322;BME280;36227;53.366;-1.426;2022-09-17T07:21:47;76997.86;;;-213.24;100.00
50322;BME280;36227;53.366;-1.426;2022-09-17T07:24:11;76997.22;;;-213.00;100.00
50322;BME280;36227;53.366;-1.426;2022-09-17T07:26:36;76964.24;;;-213.48;100.00
50322;BME280;36227;53.366;-1.426;2022-09-17T07:29:02;76959.57;;;-213.24;100.00
50322;BME280;36227;53.366;-1.426;2022-09-17T07:31:27;76951.60;;;-213.96;100.00
50322;BME280;36227;53.366;-1.426;2022-09-17T07:33:52;76956.53;;;-213.72;100.00
50322;BME280;36227;53.366;-1.426;2022-09-17T07:36:17;76936.31;;;-213.48;100.00
50322;BME280;36227;53.366;-1.426;2022-09-17T07:38:43;76945.92;;;-213.00;100.00
50322;BME280;36227;53.366;-1.426;2022-09-17T07:41:10;76926.71;;;-213.48;100.00
50322;BME280;36227;53.366;-1.426;2022-09-17T07:43:34;76879.20;;;-213.72;100.00
50322;BME280;36227;53.366;-1.426;2022-09-17T07:46:00;76853.54;;;-213.72;100.00
50322;BME280;36227;53.366;-1.426;2022-09-17T07:48:24;76809.95;;;-213.72;100.00
50322;BME280;36227;53.366;-1.426;2022-09-17T07:50:49;76808.30;;;-213.96;100.00
50322;BME280;36227;53.366;-1.426;2022-09-17T07:53:15;76809.31;;;-214.43;100.00
50322;BME280;36227;53.366;-1.426;2022-09-17T07:55:39;76796.68;;;-214.43;100.00
50322;BME280;36227;53.366;-1.426;2022-09-17T07:58:04;76820.18;;;-213.96;100.00
50322;BME280;36227;53.366;-1.426;2022-09-17T08:00:29;76715.17;;;-214.43;100.00
50322;BME280;36227;53.366;-1.426;2022-09-17T08:02:55;76744.61;;;-213.96;100.00
50322;BME280;36227;53.366;-1.426;2022-09-17T08:05:20;76676.25;;;-214.43;100.00
50322;BME280;36227;53.366;-1.426;2022-09-17T08:07:49;76783.66;;;-213.96;100.00
50322;BME280;36227;53.366;-1.426;2022-09-17T08:10:10;76732.99;;;-213.96;100.00
50322;BME280;36227;53.366;-1.426;2022-09-17T08:12:35;76755.61;;;-213.48;100.00
50322;BME280;36227;53.366;-1.426;2022-09-17T08:15:01;76677.52;;;-214.43;100.00
50322;BME280;36227;53.366;-1.426;2022-09-17T08:17:26;76775.20;;;-213.96;100.00
50322;BME280;36227;53.366;-1.426;2022-09-17T08:19:51;76751.19;;;-213.96;100.00
50322;BME280;36227;53.366;-1.426;2022-09-17T08:22:16;76704.31;;;-213.96;99.77
50322;BME280;36227;53.366;-1.426;2022-09-17T08:24:41;76697.86;;;-213.96;98.30
50322;BME280;36227;53.366;-1.426;2022-09-17T08:27:07;76694.95;;;-213.96;97.23
50322;BME280;36227;53.366;-1.426;2022-09-17T08:29:31;76653.51;;;-214.43;95.92
50322;BME280;36227;53.366;-1.426;2022-09-17T08:31:57;76673.09;;;-214.20;95.04
50322;BME280;36227;53.366;-1.426;2022-09-17T08:34:22;76682.95;;;-213.96;92.66
50322;BME280;36227;53.366;-1.426;2022-09-17T08:36:47;76649.08;;;-214.91;89.81
50322;BME280;36227;53.366;-1.426;2022-09-17T08:39:12;76631.77;;;-214.91;86.76
50322;BME280;36227;53.366;-1.426;2022-09-17T08:41:47;76719.47;;;-213.96;88.86
50322;BME280;36227;53.366;-1.426;2022-09-17T08:44:14;76624.82;;;-214.43;88.50
50322;BME280;36227;53.366;-1.426;2022-09-17T08:46:32;76712.14;;;-214.20;90.13
50322;BME280;36227;53.366;-1.426;2022-09-17T08:49:00;76689.65;;;-213.96;88.21
50322;BME280;36227;53.366;-1.426;2022-09-17T08:51:26;76740.07;;;-213.72;89.77
50322;BME280;36227;53.366;-1.426;2022-09-17T08:53:53;76696.47;;;-213.96;91.09
50322;BME280;36227;53.366;-1.426;2022-09-17T08:56:12;76713.66;;;-213.96;91.37
50322;BME280;36227;53.366;-1.426;2022-09-17T08:58:40;76734.00;;;-213.72;92.41
50322;BME280;36227;53.366;-1.426;2022-09-17T09:01:08;76711.26;;;-214.43;90.80
50322;BME280;36227;53.366;-1.426;2022-09-17T09:03:33;76641.88;;;-214.43;89.98
50322;BME280;36227;53.366;-1.426;2022-09-17T09:05:50;76625.58;;;-214.43;89.19
50322;BME280;36227;53.366;-1.426;2022-09-17T09:08:21;76618.00;;;-214.20;88.44
50322;BME280;36227;53.366;-1.426;2022-09-17T09:10:45;76668.42;;;-213.96;90.03
50322;BME280;36227;53.366;-1.426;2022-09-17T09:13:05;76660.71;;;-214.20;88.42
50322;BME280;36227;53.366;-1.426;2022-09-17T09:15:36;76644.28;;;-213.96;89.38
50322;BME280;36227;53.366;-1.426;2022-09-17T09:17:58;76639.86;;;-213.96;87.72
50322;BME280;36227;53.366;-1.426;2022-09-17T09:20:29;76625.96;;;-214.20;88.19
50322;BME280;36227;53.366;-1.426;2022-09-17T09:22:48;76599.55;;;-214.91;88.33
50322;BME280;36227;53.366;-1.426;2022-09-17T09:25:18;76585.90;;;-214.43;87.29
50322;BME280;36227;53.366;-1.426;2022-09-17T09:27:42;76640.49;;;-214.43;89.36
50322;BME280;36227;53.366;-1.426;2022-09-17T09:30:04;76599.43;;;-214.43;87.86
50322;BME280;36227;53.366;-1.426;2022-09-17T09:32:37;76596.77;;;-214.20;87.61
50322;BME280;36227;53.366;-1.426;2022-09-17T09:34:53;76607.39;;;-214.43;86.38
50322;BME280;36227;53.366;-1.426;2022-09-17T09:37:20;76556.21;;;-214.43;86.12
50322;BME280;36227;53.366;-1.426;2022-09-17T09:39:43;76502.13;;;-214.67;84.58
50322;BME280;36227;53.366;-1.426;2022-09-17T09:42:13;76520.70;;;-214.91;85.66
50322;BME280;36227;53.366;-1.426;2022-09-17T09:44:33;76506.68;;;-215.39;83.23
50322;BME280;36227;53.366;-1.426;2022-09-17T09:47:11;76591.09;;;-214.43;86.21
50322;BME280;36227;53.366;-1.426;2022-09-17T09:49:33;76584.89;;;-214.43;87.29
50322;BME280;36227;53.366;-1.426;2022-09-17T09:51:58;76585.65;;;-214.20;86.87
50322;BME280;36227;53.366;-1.426;2022-09-17T09:54:24;76547.24;;;-214.43;84.93
50322;BME280;36227;53.366;-1.426;2022-09-17T09:56:50;76550.90;;;-214.43;84.72
50322;BME280;36227;53.366;-1.426;2022-09-17T09:59:06;76520.96;;;-214.43;86.16
50322;BME280;36227;53.366;-1.426;2022-09-17T10:01:30;76496.57;;;-214.91;84.37
50322;BME280;36227;53.366;-1.426;2022-09-17T10:03:55;76450.58;;;-215.15;82.25
50322;BME280;36227;53.366;-1.426;2022-09-17T10:06:20;76469.15;;;-215.63;83.51
50322;BME280;36227;53.366;-1.426;2022-09-17T10:11:18;76455.76;;;-214.91;81.19
50322;BME280;36227;53.366;-1.426;2022-09-17T10:13:36;76500.11;;;-214.91;81.73
50322;BME280;36227;53.366;-1.426;2022-09-17T10:18:25;76530.18;;;-214.67;81.89
50322;BME280;36227;53.366;-1.426;2022-09-17T10:20:55;76552.04;;;-214.43;82.42
50322;BME280;36227;53.366;-1.426;2022-09-17T10:23:16;76534.73;;;-214.43;82.57
50322;BME280;36227;53.366;-1.426;2022-09-17T10:25:42;76413.30;;;-214.91;79.98
50322;BME280;36227;53.366;-1.426;2022-09-17T10:30:31;76479.26;;;-214.91;81.77
50322;BME280;36227;53.366;-1.426;2022-09-17T10:33:13;76411.66;;;-214.91;80.36
50322;BME280;36227;53.366;-1.426;2022-09-17T10:35:26;76416.33;;;-214.91;80.78
50322;BME280;36227;53.366;-1.426;2022-09-17T10:37:48;76412.92;;;-214.91;80.53
50322;BME280;36227;53.366;-1.426;2022-09-17T10:42:37;76388.03;;;-214.91;79.82
50322;BME280;36227;53.366;-1.426;2022-09-17T10:45:02;76404.46;;;-214.91;79.63
50322;BME280;36227;53.366;-1.426;2022-09-17T10:47:29;76432.63;;;-214.67;80.38
50322;BME280;36227;53.366;-1.426;2022-09-17T10:49:55;76456.39;;;-215.39;81.34
50322;BME280;36227;53.366;-1.426;2022-09-17T10:52:23;76464.35;;;-214.91;79.99
50322;BME280;36227;53.366;-1.426;2022-09-17T10:54:58;76388.92;;;-215.15;79.52
50322;BME280;36227;53.366;-1.426;2022-09-17T10:57:13;76378.93;;;-214.91;79.46
50322;BME280;36227;53.366;-1.426;2022-09-17T10:59:53;76440.85;;;-214.91;79.89
50322;BME280;36227;53.366;-1.426;2022-09-17T11:02:07;76425.31;;;-214.91;80.57
50322;BME280;36227;53.366;-1.426;2022-09-17T11:04:30;76404.84;;;-214.91;80.53
50322;BME280;36227;53.366;-1.426;2022-09-17T11:07:02;76361.88;;;-214.91;80.36
50322;BME280;36227;53.366;-1.426;2022-09-17T11:09:23;76398.39;;;-214.91;80.22
50322;BME280;36227;53.366;-1.426;2022-09-17T11:11:49;76403.19;;;-215.39;81.05
50322;BME280;36227;53.366;-1.426;2022-09-17T11:14:13;76407.87;;;-215.39;79.91
50322;BME280;36227;53.366;-1.426;2022-09-17T11:16:35;76369.08;;;-214.91;80.25
50322;BME280;36227;53.366;-1.426;2022-09-17T11:19:01;76330.79;;;-214.91;78.71
50322;BME280;36227;53.366;-1.426;2022-09-17T11:21:26;76344.06;;;-214.91;78.83
50322;BME280;36227;53.366;-1.426;2022-09-17T11:23:57;76252.46;;;-215.39;77.57
50322;BME280;36227;53.366;-1.426;2022-09-17T11:26:17;76288.72;;;-215.39;78.60
50322;BME280;36227;53.366;-1.426;2022-09-17T11:28:49;76264.33;;;-215.15;77.63
50322;BME280;36227;53.366;-1.426;2022-09-17T11:31:09;76288.72;;;-215.63;75.97
50322;BME280;36227;53.366;-1.426;2022-09-17T11:33:37;76295.04;;;-215.87;76.08
50322;BME280;36227;53.366;-1.426;2022-09-17T11:35:54;76345.70;;;-215.39;77.21
50322;BME280;36227;53.366;-1.426;2022-09-17T11:38:20;76356.19;;;-214.91;79.00
50322;BME280;36227;53.366;-1.426;2022-09-17T11:40:43;76307.17;;;-214.91;77.30
50322;BME280;36227;53.366;-1.426;2022-09-17T11:43:14;76311.71;;;-215.39;76.43
50322;BME280;36227;53.366;-1.426;2022-09-17T11:45:33;76289.48;;;-215.15;76.41
50322;BME280;36227;53.366;-1.426;2022-09-17T11:48:00;76311.34;;;-215.15;76.04
50322;BME280;36227;53.366;-1.426;2022-09-17T11:50:23;76306.28;;;-214.91;76.29
50322;BME280;36227;53.366;-1.426;2022-09-17T11:52:54;76249.05;;;-215.39;74.76
50322;BME280;36227;53.366;-1.426;2022-09-17T11:55:20;76293.02;;;-215.87;74.59
50322;BME280;36227;53.366;-1.426;2022-09-17T11:57:38;76353.54;;;-214.91;76.47
50322;BME280;36227;53.366;-1.426;2022-09-17T12:00:04;76246.90;;;-215.39;75.93
50322;BME280;36227;53.366;-1.426;2022-09-17T12:02:37;76188.02;;;-215.63;74.88
50322;BME280;36227;53.366;-1.426;2022-09-17T12:04:56;76221.88;;;-215.39;74.91
50322;BME280;36227;53.366;-1.426;2022-09-17T12:07:26;76203.94;;;-215.63;74.60
50322;BME280;36227;53.366;-1.426;2022-09-17T12:12:12;76191.68;;;-215.39;72.62
50322;BME280;36227;53.366;-1.426;2022-09-17T12:16:59;76158.58;;;-216.11;74.48
50322;BME280;36227;53.366;-1.426;2022-09-17T12:21:51;76183.09;;;-215.63;74.80
50322;BME280;36227;53.366;-1.426;2022-09-17T12:24:20;76186.63;;;-215.63;73.08
50322;BME280;36227;53.366;-1.426;2022-09-17T12:27:02;76181.07;;;-215.39;73.66
50322;BME280;36227;53.366;-1.426;2022-09-17T12:29:12;76143.04;;;-215.87;72.98
50322;BME280;36227;53.366;-1.426;2022-09-17T12:31:34;76192.06;;;-215.39;72.31
50322;BME280;36227;53.366;-1.426;2022-09-17T12:34:00;76164.65;;;-215.39;72.30